createdAt,value
2019-01-06T00:01:45.713Z,4.53
2019-01-06T00:04:33.705Z,4.50
2019-01-06T00:07:04.892Z,4.49
2019-01-06T00:09:36.088Z,4.44
2019-01-06T00:12:07.373Z,4.38
2019-01-06T00:14:55.430Z,4.34
2019-01-06T00:17:43.603Z,4.35
2019-01-06T00:20:14.514Z,4.32
2019-01-06T00:22:54.836Z,4.27
2019-01-06T00:25:35.415Z,4.23
2019-01-06T00:28:19.220Z,4.17
2019-01-06T00:30:52.908Z,4.10
2019-01-06T00:33:36.150Z,4.01
2019-01-06T00:36:20.036Z,3.98
2019-01-06T00:38:57.300Z,3.94
2019-01-06T00:41:28.584Z,3.88
2019-01-06T00:44:02.403Z,3.86
2019-01-06T00:46:40.005Z,3.79
2019-01-06T00:49:24.891Z,3.74
2019-01-06T00:51:56.225Z,3.77
2019-01-06T00:54:27.171Z,3.79
2019-01-06T00:57:05.230Z,3.78
2019-01-06T00:59:42.545Z,3.79
2019-01-06T01:02:13.815Z,3.81
2019-01-06T01:05:06.889Z,3.82
2019-01-06T01:07:50.298Z,3.81
2019-01-06T01:10:25.331Z,3.77
2019-01-06T01:12:59.961Z,3.78
2019-01-06T01:15:37.763Z,3.80
2019-01-06T01:18:21.409Z,3.78
2019-01-06T01:21:01.517Z,3.72
2019-01-06T01:23:45.561Z,3.64
2019-01-06T01:26:33.745Z,3.58
2019-01-06T01:29:21.520Z,3.56
2019-01-06T01:32:07.849Z,3.54
2019-01-06T01:34:39.144Z,3.56
2019-01-06T01:37:28.763Z,3.60
2019-01-06T01:40:15.417Z,3.57
2019-01-06T01:42:46.833Z,3.56
2019-01-06T01:45:18.126Z,3.52
2019-01-06T01:47:58.959Z,3.52
2019-01-06T01:50:39.332Z,3.50
2019-01-06T01:53:19.927Z,3.46
2019-01-06T01:56:03.354Z,3.42
2019-01-06T01:58:51.172Z,3.38
2019-01-06T02:01:37.180Z,3.36
2019-01-06T02:04:26.812Z,3.33
2019-01-06T02:07:06.931Z,3.32
2019-01-06T02:09:50.069Z,3.27
2019-01-06T02:12:36.027Z,3.22
2019-01-06T02:15:09.007Z,3.18
2019-01-06T02:17:49.354Z,3.12
2019-01-06T02:20:27.451Z,3.09
2019-01-06T02:23:13.468Z,3.07
2019-01-06T02:25:50.748Z,3.06
2019-01-06T02:28:27.840Z,3.05
2019-01-06T02:31:17.441Z,2.99
2019-01-06T02:33:56.496Z,2.92
2019-01-06T02:36:27.420Z,2.91
2019-01-06T02:39:10.704Z,2.90
2019-01-06T02:41:53.529Z,2.89
2019-01-06T02:44:31.101Z,2.87
2019-01-06T02:47:16.686Z,2.86
2019-01-06T02:49:57.421Z,2.85
2019-01-06T02:52:31.015Z,2.84
2019-01-06T02:55:07.951Z,2.80
2019-01-06T02:57:45.572Z,2.78
2019-01-06T03:00:26.123Z,2.73
2019-01-06T03:03:03.326Z,2.68
2019-01-06T03:05:34.170Z,2.68
2019-01-06T03:08:04.969Z,2.63
2019-01-06T03:10:36.121Z,2.62
2019-01-06T03:13:07.118Z,2.61
2019-01-06T03:15:44.661Z,2.60
2019-01-06T03:18:25.016Z,2.57
2019-01-06T03:21:13.325Z,2.53
2019-01-06T03:24:01.459Z,2.53
2019-01-06T03:26:50.153Z,2.49
2019-01-06T03:29:21.239Z,2.45
2019-01-06T03:31:55.322Z,2.39
2019-01-06T03:34:26.478Z,2.37
2019-01-06T03:36:57.595Z,2.35
2019-01-06T03:39:46.845Z,2.32
2019-01-06T03:42:27.277Z,2.33
2019-01-06T03:44:58.624Z,2.32
2019-01-06T03:47:32.333Z,2.32
2019-01-06T03:50:10.292Z,2.31
2019-01-06T03:52:58.168Z,2.30
2019-01-06T03:55:41.666Z,2.33
2019-01-06T03:58:12.928Z,2.33
2019-01-06T04:00:56.215Z,2.31
2019-01-06T04:03:27.434Z,2.28
2019-01-06T04:06:11.211Z,2.26
2019-01-06T04:08:52.123Z,2.23
2019-01-06T04:11:40.147Z,2.13
2019-01-06T04:14:17.315Z,2.10
2019-01-06T04:17:04.306Z,2.08
2019-01-06T04:19:38.399Z,2.07
2019-01-06T04:22:12.202Z,2.03
2019-01-06T04:24:58.377Z,1.98
2019-01-06T04:27:39.349Z,1.97
2019-01-06T04:30:10.605Z,1.95
2019-01-06T04:32:41.775Z,1.94
2019-01-06T04:35:29.755Z,1.95
2019-01-06T04:38:01.026Z,1.95
2019-01-06T04:40:49.093Z,1.94
2019-01-06T04:43:20.304Z,1.92
2019-01-06T04:46:00.793Z,1.92
2019-01-06T04:48:49.125Z,1.92
2019-01-06T04:51:26.692Z,1.87
2019-01-06T04:54:13.528Z,1.82
2019-01-06T04:56:49.123Z,1.80
2019-01-06T04:59:38.026Z,1.78
2019-01-06T05:02:21.524Z,1.75
2019-01-06T05:04:52.639Z,1.71
2019-01-06T05:07:39.319Z,1.68
2019-01-06T05:10:20.731Z,1.68
2019-01-06T05:12:51.973Z,1.68
2019-01-06T05:15:29.889Z,1.64
2019-01-06T05:18:07.930Z,1.61
2019-01-06T05:20:48.433Z,1.60
2019-01-06T05:23:20.065Z,1.59
2019-01-06T05:26:03.912Z,1.58
2019-01-06T05:28:52.977Z,1.53
2019-01-06T05:31:24.237Z,1.50
2019-01-06T05:33:55.567Z,1.43
2019-01-06T05:36:27.012Z,1.39
2019-01-06T05:38:58.223Z,1.38
2019-01-06T05:41:46.297Z,1.39
2019-01-06T05:44:23.708Z,1.41
2019-01-06T05:47:05.390Z,1.43
2019-01-06T05:49:52.146Z,1.42
2019-01-06T05:52:32.639Z,1.44
2019-01-06T05:55:10.182Z,1.42
2019-01-06T05:57:53.994Z,1.41
2019-01-06T06:00:25.217Z,1.38
2019-01-06T06:02:56.072Z,1.36
2019-01-06T06:05:27.512Z,1.33
2019-01-06T06:08:06.441Z,1.29
2019-01-06T06:10:50.083Z,1.22
2019-01-06T06:13:21.150Z,1.17
2019-01-06T06:15:56.386Z,1.17
2019-01-06T06:18:45.203Z,1.16
2019-01-06T06:21:23.020Z,1.14
2019-01-06T06:23:54.181Z,1.15
2019-01-06T06:26:37.753Z,1.16
2019-01-06T06:29:15.530Z,1.14
2019-01-06T06:31:58.904Z,1.11
2019-01-06T06:34:47.254Z,1.11
2019-01-06T06:37:28.112Z,1.11
2019-01-06T06:40:10.165Z,1.12
2019-01-06T06:42:53.670Z,1.11
2019-01-06T06:45:34.576Z,1.08
2019-01-06T06:48:15.930Z,1.05
2019-01-06T06:51:14.747Z,1.00
2019-01-06T06:54:01.017Z,0.97
2019-01-06T06:56:38.144Z,0.94
2019-01-06T06:59:15.978Z,0.90
2019-01-06T07:02:22.841Z,0.88
2019-01-06T07:05:06.857Z,0.84
2019-01-06T07:07:38.095Z,0.78
2019-01-06T07:10:09.321Z,0.76
2019-01-06T07:12:51.811Z,0.73
2019-01-06T07:15:31.250Z,0.72
2019-01-06T07:18:12.079Z,0.75
2019-01-06T07:20:52.190Z,0.77
2019-01-06T07:23:38.794Z,0.75
2019-01-06T07:26:26.252Z,0.69
2019-01-06T07:29:14.607Z,0.67
2019-01-06T07:31:45.839Z,0.69
2019-01-06T07:34:33.746Z,0.68
2019-01-06T07:37:04.801Z,0.68
2019-01-06T07:39:51.251Z,0.66
2019-01-06T07:42:30.813Z,0.67
2019-01-06T07:45:18.606Z,0.71
2019-01-06T07:47:49.891Z,0.70
2019-01-06T07:50:27.707Z,0.65
2019-01-06T07:53:17.607Z,0.62
2019-01-06T07:55:48.979Z,0.61
2019-01-06T07:58:21.107Z,0.56
2019-01-06T08:00:59.258Z,0.50
2019-01-06T08:03:44.638Z,0.48
2019-01-06T08:06:34.151Z,0.50
2019-01-06T08:09:06.686Z,0.52
2019-01-06T08:11:55.388Z,0.55
2019-01-06T08:14:43.652Z,0.57
2019-01-06T08:17:21.073Z,0.60
2019-01-06T08:20:01.300Z,0.65
2019-01-06T08:22:51.535Z,0.67
2019-01-06T08:25:41.496Z,0.74
2019-01-06T08:28:24.786Z,0.80
2019-01-06T08:31:13.608Z,0.87
2019-01-06T08:33:47.130Z,0.93
2019-01-06T08:36:27.365Z,1.01
2019-01-06T08:39:03.765Z,1.10
2019-01-06T08:41:51.927Z,1.18
2019-01-06T08:44:29.363Z,1.27
2019-01-06T08:47:00.579Z,1.35
2019-01-06T08:49:31.831Z,1.44
2019-01-06T08:52:02.751Z,1.50
2019-01-06T08:54:50.834Z,1.54
2019-01-06T08:57:21.984Z,1.60
2019-01-06T09:00:10.256Z,1.67
2019-01-06T09:02:57.960Z,1.75
2019-01-06T09:05:46.156Z,1.83
2019-01-06T09:08:26.855Z,1.94
2019-01-06T09:11:10.613Z,2.06
2019-01-06T09:13:48.496Z,2.20
2019-01-06T09:16:26.181Z,2.34
2019-01-06T09:19:14.523Z,2.47
2019-01-06T09:22:02.767Z,2.61
2019-01-06T09:24:33.810Z,2.76
2019-01-06T09:27:10.240Z,2.92
2019-01-06T09:29:50.883Z,3.07
2019-01-06T09:32:40.396Z,3.21
2019-01-06T09:35:12.237Z,3.42
2019-01-06T09:37:43.433Z,3.61
2019-01-06T09:40:31.593Z,3.76
2019-01-06T09:43:19.362Z,3.95
2019-01-06T09:46:10.001Z,4.14
2019-01-06T09:48:45.574Z,4.33
2019-01-06T09:51:19.486Z,4.52
2019-01-06T09:53:50.354Z,4.74
2019-01-06T09:56:34.100Z,4.97
2019-01-06T09:59:23.588Z,5.18
2019-01-06T10:02:10.626Z,5.41
2019-01-06T10:04:57.228Z,5.65
2019-01-06T10:07:28.340Z,5.89
2019-01-06T10:10:05.528Z,6.12
2019-01-06T10:12:44.871Z,6.35
2019-01-06T10:15:28.252Z,6.61
2019-01-06T10:18:02.894Z,6.90
2019-01-06T10:20:43.677Z,7.29
2019-01-06T10:23:17.087Z,7.67
2019-01-06T10:26:05.521Z,8.09
2019-01-06T10:28:54.864Z,8.54
2019-01-06T10:31:41.362Z,9.14
2019-01-06T10:34:30.960Z,9.68
2019-01-06T10:37:11.421Z,10.21
2019-01-06T10:39:57.689Z,10.62
2019-01-06T10:42:32.042Z,10.95
2019-01-06T10:45:03.096Z,11.30
2019-01-06T10:47:51.804Z,11.58
2019-01-06T10:50:22.763Z,11.81
2019-01-06T10:52:53.987Z,12.12
2019-01-06T10:55:42.192Z,12.38
2019-01-06T10:58:30.402Z,12.63
2019-01-06T11:01:07.563Z,12.88
2019-01-06T11:03:46.704Z,13.12
2019-01-06T11:06:27.542Z,13.37
2019-01-06T11:08:58.531Z,13.56
2019-01-06T11:11:47.920Z,13.72
2019-01-06T11:14:19.404Z,13.90
2019-01-06T11:17:09.417Z,14.10
2019-01-06T11:19:40.883Z,14.27
2019-01-06T11:22:18.890Z,14.48
2019-01-06T11:24:56.639Z,14.73
2019-01-06T11:27:44.829Z,14.96
2019-01-06T11:30:51.639Z,15.15
2019-01-06T11:33:29.108Z,15.36
2019-01-06T11:36:09.847Z,15.63
2019-01-06T11:38:41.800Z,15.81
2019-01-06T11:41:29.973Z,15.99
2019-01-06T11:44:09.377Z,16.11
2019-01-06T11:46:43.447Z,16.29
2019-01-06T11:49:24.407Z,16.42
2019-01-06T11:52:11.169Z,16.55
2019-01-06T11:54:51.831Z,16.71
2019-01-06T11:57:29.531Z,16.84
2019-01-06T12:00:00.912Z,16.93
2019-01-06T12:02:41.065Z,17.05
2019-01-06T12:05:21.015Z,17.18
2019-01-06T12:08:09.627Z,17.35
2019-01-06T12:10:40.762Z,17.50
2019-01-06T12:13:18.018Z,17.61
2019-01-06T12:15:55.648Z,17.72
2019-01-06T12:18:32.997Z,17.84
2019-01-06T12:21:10.765Z,17.99
2019-01-06T12:23:48.436Z,18.12
2019-01-06T12:26:36.793Z,18.25
2019-01-06T12:29:16.841Z,18.36
2019-01-06T12:31:55.980Z,18.48
2019-01-06T12:34:39.795Z,18.58
2019-01-06T12:37:10.904Z,18.67
2019-01-06T12:39:48.685Z,18.76
2019-01-06T12:42:36.860Z,18.86
2019-01-06T12:45:14.353Z,18.99
2019-01-06T12:47:45.649Z,19.10
2019-01-06T12:50:26.223Z,19.21
2019-01-06T12:53:01.576Z,19.34
2019-01-06T12:55:41.707Z,19.49
2019-01-06T12:58:19.845Z,19.60
2019-01-06T13:01:08.191Z,19.68
2019-01-06T13:03:55.195Z,19.75
2019-01-06T13:06:32.208Z,19.88
2019-01-06T13:09:12.783Z,20.00
2019-01-06T13:12:02.062Z,20.10
2019-01-06T13:14:51.804Z,20.17
2019-01-06T13:17:28.368Z,20.25
2019-01-06T13:20:16.586Z,20.34
2019-01-06T13:23:06.255Z,20.46
2019-01-06T13:25:37.832Z,20.54
2019-01-06T13:28:09.317Z,20.58
2019-01-06T13:30:47.772Z,20.61
2019-01-06T13:33:34.322Z,20.68
2019-01-06T13:36:09.123Z,20.78
2019-01-06T13:38:39.583Z,20.85
2019-01-06T13:41:26.768Z,20.91
2019-01-06T13:44:15.246Z,20.97
2019-01-06T14:02:58.469Z,21.34
2019-01-06T14:05:42.503Z,21.40
2019-01-06T14:08:26.213Z,21.44
2019-01-06T14:11:03.890Z,21.52
2019-01-06T14:13:42.837Z,21.60
2019-01-06T14:16:21.694Z,21.60
2019-01-06T14:18:53.137Z,21.58
2019-01-06T14:21:37.018Z,21.60
2019-01-06T14:24:08.359Z,21.64
2019-01-06T14:26:43.659Z,21.68
2019-01-06T14:29:15.090Z,21.74
2019-01-06T14:31:58.652Z,21.78
2019-01-06T14:34:33.630Z,21.83
2019-01-06T14:37:23.122Z,21.87
2019-01-06T17:16:23.264Z,16.84
2019-01-06T17:21:34.186Z,16.71
2019-01-06T17:24:07.807Z,16.63
2019-01-06T17:26:41.586Z,16.54
2019-01-06T17:29:15.499Z,16.46
2019-01-06T17:31:58.455Z,16.33
2019-01-06T17:34:31.585Z,16.20
2019-01-06T17:37:02.021Z,16.03
2019-01-06T17:39:32.660Z,15.84
2019-01-06T17:42:05.714Z,15.73
2019-01-06T17:44:36.180Z,15.59
2019-01-06T17:47:22.755Z,15.50
2019-01-06T17:49:53.412Z,15.39
2019-01-06T17:52:33.100Z,15.25
2019-01-06T17:55:21.699Z,15.09
2019-01-06T17:57:55.221Z,14.90
2019-01-06T18:00:34.756Z,14.71
2019-01-06T18:03:05.287Z,14.59
2019-01-06T18:05:51.716Z,14.46
2019-01-06T18:08:25.113Z,14.34
2019-01-06T18:10:55.499Z,14.18
2019-01-06T18:13:35.151Z,14.07
2019-01-06T18:16:05.598Z,13.95
2019-01-06T18:18:36.518Z,13.86
2019-01-06T18:21:16.327Z,13.82
2019-01-06T18:23:58.883Z,13.87
2019-01-06T18:26:29.521Z,13.87
2019-01-06T18:29:03.362Z,13.77
2019-01-06T18:31:50.485Z,13.62
2019-01-06T18:34:24.160Z,13.45
2019-01-06T18:37:12.259Z,13.30
2019-01-06T18:39:42.691Z,13.23
2019-01-06T18:42:20.157Z,13.17
2019-01-06T18:45:09.173Z,13.09
2019-01-06T18:47:41.109Z,13.02
2019-01-06T18:50:28.095Z,12.94
2019-01-06T18:52:58.872Z,12.86
2019-01-06T18:55:46.224Z,12.77
2019-01-06T18:58:33.733Z,12.70
2019-01-06T19:01:04.151Z,12.57
2019-01-06T19:03:40.503Z,12.44
2019-01-06T19:06:11.694Z,12.32
2019-01-06T19:08:46.243Z,12.18
2019-01-06T19:11:23.208Z,12.12
2019-01-06T19:14:02.850Z,12.02
2019-01-06T19:16:36.395Z,11.95
2019-01-06T19:19:22.856Z,11.91
2019-01-06T19:22:10.665Z,11.86
2019-01-06T19:24:45.393Z,11.75
2019-01-06T19:27:32.833Z,11.65
2019-01-06T19:30:20.692Z,11.63
2019-01-06T19:33:09.219Z,11.69
2019-01-06T19:35:40.714Z,11.76
2019-01-06T19:38:14.294Z,11.80
2019-01-06T19:41:03.441Z,11.81
2019-01-06T19:43:43.237Z,11.85
2019-01-06T19:46:19.756Z,11.92
2019-01-06T19:48:56.495Z,12.00
2019-01-06T19:51:27.429Z,12.09
2019-01-06T19:54:03.877Z,12.12
2019-01-06T19:56:37.026Z,12.15
2019-01-06T19:59:17.048Z,12.13
2019-01-06T20:01:51.487Z,12.08
2019-01-06T20:04:40.884Z,11.97
2019-01-06T20:07:18.712Z,11.85
2019-01-06T20:10:05.335Z,11.67
2019-01-06T20:12:39.223Z,11.51
2019-01-06T20:15:16.932Z,11.38
2019-01-06T20:17:57.432Z,11.25
2019-01-06T20:20:32.633Z,11.11
2019-01-06T20:23:10.578Z,10.89
2019-01-06T20:25:57.346Z,10.68
2019-01-06T20:28:36.009Z,10.52
2019-01-06T20:31:20.156Z,10.32
2019-01-06T20:34:08.942Z,10.20
2019-01-06T20:36:40.921Z,10.12
2019-01-06T20:39:24.870Z,10.07
2019-01-06T20:42:10.596Z,9.99
2019-01-06T20:45:00.933Z,9.95
2019-01-06T20:47:39.231Z,9.91
2019-01-06T20:50:11.678Z,9.88
2019-01-06T20:52:51.449Z,9.92
2019-01-06T20:55:31.391Z,9.93
2019-01-06T20:58:16.903Z,9.95
2019-01-06T21:00:50.490Z,9.87
2019-01-06T21:03:39.505Z,9.80
2019-01-06T21:06:28.129Z,9.81
2019-01-06T21:09:05.461Z,9.81
2019-01-06T21:11:48.569Z,9.76
2019-01-06T21:14:31.837Z,9.69
2019-01-06T21:17:19.638Z,9.64
2019-01-06T21:19:54.586Z,9.54
2019-01-06T21:22:42.701Z,9.43
2019-01-06T21:25:14.036Z,9.36
2019-01-06T21:27:44.978Z,9.29
2019-01-06T21:30:21.492Z,9.28
2019-01-06T21:33:08.795Z,9.24
2019-01-06T21:35:52.367Z,9.13
2019-01-06T21:38:27.705Z,9.05
2019-01-06T21:41:01.278Z,8.88
2019-01-06T21:43:32.565Z,8.72
2019-01-06T21:46:20.454Z,8.63
2019-01-06T21:49:08.925Z,8.60
2019-01-06T21:51:40.073Z,8.53
2019-01-06T21:54:17.955Z,8.49
2019-01-06T21:57:08.070Z,8.43
2019-01-06T21:59:48.468Z,8.35
2019-01-06T22:02:32.341Z,8.24
2019-01-06T22:05:03.012Z,8.12
2019-01-06T22:07:43.469Z,8.06
2019-01-06T22:10:30.338Z,7.95
2019-01-06T22:13:01.423Z,7.92
2019-01-06T22:15:51.630Z,7.82
2019-01-06T22:18:35.280Z,7.76
2019-01-06T22:21:15.340Z,7.70
2019-01-06T22:24:02.653Z,7.64
2019-01-06T22:26:51.080Z,7.54
2019-01-06T22:29:38.038Z,7.48
2019-01-06T22:32:25.080Z,7.44
2019-01-06T22:35:02.060Z,7.40
2019-01-06T22:37:55.718Z,7.34
2019-01-06T22:40:33.239Z,7.27
2019-01-06T22:43:07.572Z,7.23
2019-01-06T22:45:44.609Z,7.19
2019-01-06T22:48:22.085Z,7.19
2019-01-06T22:50:55.584Z,7.17
2019-01-06T22:53:45.621Z,7.16
2019-01-06T22:56:33.842Z,7.18
2019-01-06T22:59:13.623Z,7.22
2019-01-06T23:01:45.081Z,7.29
2019-01-06T23:04:18.635Z,7.31
2019-01-06T23:07:07.299Z,7.30
2019-01-06T23:09:55.856Z,7.23
2019-01-06T23:12:27.156Z,7.16
2019-01-06T23:15:03.130Z,7.13
2019-01-06T23:17:34.910Z,7.11
2019-01-06T23:20:05.830Z,7.09
2019-01-06T23:22:45.303Z,7.04
2019-01-06T23:25:30.736Z,6.95
2019-01-06T23:28:04.153Z,6.90
2019-01-06T23:30:47.901Z,6.82
2019-01-06T23:33:19.124Z,6.72
2019-01-06T23:35:59.214Z,6.68
2019-01-06T23:38:47.427Z,6.59
2019-01-06T23:41:36.006Z,6.52
2019-01-06T23:44:15.962Z,6.49
2019-01-06T23:47:04.602Z,6.48
2019-01-06T23:49:52.619Z,6.49
2019-01-06T23:52:23.718Z,6.47
2019-01-06T23:55:06.774Z,6.46
2019-01-06T23:57:37.996Z,6.44
